Time;durP1;ratioP1;P1;durP2;ratioP2;P2;SDS_P1;SDS_P2;PMS_P1;PMS_P2;Temp;Humidity;BMP_temperature;BMP_pressure;BME280_temperature;BME280_humidity;BME280_pressure;Samples;Min_cycle;Max_cycle;Signal;HPM_P1;HPM_P2
2023/03/17 00:04:53;;;;;;;;;;;;;;;19.07;33.15;95536.56;10469064;28;2422;-57
2023/03/17 00:09:54;;;;;;;;;;;;;;;19.06;33.09;95539.47;10473181;28;2481;-58
2023/03/17 00:14:55;;;;;;;;;;;;;;;19.04;33.31;95537.09;10468060;28;2441;-56
2023/03/17 00:19:56;;;;;;;;;;;;;;;19.03;33.15;95535.53;10470284;28;2497;-58
2023/03/17 00:24:57;;;;;;;;;;;;;;;19.01;33.21;95519.25;10447055;28;2496;-58
2023/03/17 00:29:57;;;;;;;;;;;;;;;19.00;33.31;95517.66;10453366;28;2426;-58
2023/03/17 00:34:57;;;;;;;;;;;;;;;18.99;33.31;95524.00;10462614;28;2559;-57
2023/03/17 00:39:58;;;;;;;;;;;;;;;18.96;33.17;95506.13;10470796;28;2467;-58
2023/03/17 00:44:58;;;;;;;;;;;;;;;18.95;33.28;95501.16;10463712;28;2460;-56
2023/03/17 00:49:59;;;;;;;;;;;;;;;18.94;33.17;95508.25;10457109;28;1968;-58
2023/03/17 00:54:59;;;;;;;;;;;;;;;18.93;33.19;95505.88;10465530;28;2449;-58
2023/03/17 01:00:00;;;;;;;;;;;;;;;18.91;33.17;95503.53;10459932;28;2032;-58
2023/03/17 01:05:01;;;;;;;;;;;;;;;18.91;33.14;95498.28;10466612;28;2412;-57
2023/03/17 01:10:01;;;;;;;;;;;;;;;18.88;33.36;95496.19;10472424;28;2422;-57
2023/03/17 01:15:02;;;;;;;;;;;;;;;18.86;33.14;95485.16;10472445;28;2484;-57
2023/03/17 01:20:04;;;;;;;;;;;;;;;18.86;33.18;95474.66;10460718;28;2461;-58
2023/03/17 01:25:04;;;;;;;;;;;;;;;18.84;33.15;95463.63;10469053;28;2525;-58
2023/03/17 01:30:10;;;;;;;;;;;;;;;18.83;33.11;95466.53;10443525;28;2471;-57
2023/03/17 01:35:12;;;;;;;;;;;;;;;18.81;33.12;95455.50;10479379;28;2504;-59
2023/03/17 01:40:14;;;;;;;;;;;;;;;18.81;33.24;95456.31;10465076;28;2493;-58
2023/03/17 01:45:33;;;;;;;;;;;;;;;18.78;33.12;95448.97;10465140;28;1973;-58
2023/03/17 01:50:34;;;;;;;;;;;;;;;18.78;33.15;95445.53;10463054;28;2523;-57
2023/03/17 01:55:34;;;;;;;;;;;;;;;18.76;33.12;95432.69;10456540;28;2067;-61
2023/03/17 02:00:35;;;;;;;;;;;;;;;18.75;33.08;95423.25;10462399;28;2461;-56
2023/03/17 02:05:35;;;;;;;;;;;;;;;18.74;33.12;95421.66;10465192;28;2492;-61
2023/03/17 02:10:36;;;;;;;;;;;;;;;18.73;33.03;95427.19;10468667;28;1976;-56
2023/03/17 02:15:43;;;;;;;;;;;;;;;18.73;33.04;95424.56;10447887;28;2465;-55
2023/03/17 02:20:46;;;;;;;;;;;;;;;18.70;33.07;95407.50;10471731;28;2454;-58
2023/03/17 02:25:46;;;;;;;;;;;;;;;18.68;33.22;95402.53;10466962;28;1981;-57
2023/03/17 02:30:47;;;;;;;;;;;;;;;18.67;33.02;95379.16;10478139;28;2593;-58
2023/03/17 02:35:48;;;;;;;;;;;;;;;18.66;33.05;95378.38;10464771;28;2508;-58
2023/03/17 02:40:50;;;;;;;;;;;;;;;18.64;33.14;95372.63;10457048;28;2795;-58
2023/03/17 02:45:50;;;;;;;;;;;;;;;18.64;33.05;95374.47;10469932;28;2524;-56
2023/03/17 02:50:51;;;;;;;;;;;;;;;18.63;33.08;95372.88;10478041;28;2024;-55
2023/03/17 02:55:52;;;;;;;;;;;;;;;18.61;33.06;95370.53;10478544;28;2453;-57
2023/03/17 03:00:53;;;;;;;;;;;;;;;18.61;33.03;95374.97;10472358;28;2452;-56
2023/03/17 03:05:54;;;;;;;;;;;;;;;18.59;33.04;95371.84;10462143;28;2032;-58
2023/03/17 03:10:55;;;;;;;;;;;;;;;18.59;33.06;95374.47;10464915;28;2380;-58
2023/03/17 03:15:56;;;;;;;;;;;;;;;18.57;33.04;95384.44;10465067;28;1987;-57
2023/03/17 03:20:56;;;;;;;;;;;;;;;18.56;33.16;95375.81;10462133;28;2465;-58
2023/03/17 03:25:57;;;;;;;;;;;;;;;18.55;33.06;95371.59;10473337;28;2441;-58
2023/03/17 03:30:59;;;;;;;;;;;;;;;18.54;33.07;95364.00;10467628;28;1961;-56
2023/03/17 03:36:01;;;;;;;;;;;;;;;18.53;33.04;95367.66;10471993;28;2482;-58
2023/03/17 03:41:02;;;;;;;;;;;;;;;18.52;32.96;95366.13;10472238;28;2588;-58
2023/03/17 03:46:02;;;;;;;;;;;;;;;18.50;33.00;95368.22;10467867;28;2465;-58
2023/03/17 03:51:04;;;;;;;;;;;;;;;18.49;32.97;95370.06;10471869;28;2401;-57
2023/03/17 03:56:04;;;;;;;;;;;;;;;18.48;32.96;95365.09;10469071;28;2502;-58
2023/03/17 04:01:05;;;;;;;;;;;;;;;18.47;32.89;95363.50;10454245;28;2481;-58
2023/03/17 04:06:05;;;;;;;;;;;;;;;18.46;32.98;95351.44;10469469;28;2461;-57
2023/03/17 04:11:05;;;;;;;;;;;;;;;18.45;32.87;95347.25;10467228;28;2541;-58
2023/03/17 04:16:06;;;;;;;;;;;;;;;18.44;32.91;95361.44;10470227;28;2469;-59
2023/03/17 04:21:07;;;;;;;;;;;;;;;18.43;33.05;95355.38;10478924;28;2374;-56
2023/03/17 04:26:07;;;;;;;;;;;;;;;18.42;32.95;95353.78;10453463;28;2517;-58
2023/03/17 04:31:10;;;;;;;;;;;;;;;18.40;32.94;95348.00;10457193;28;2449;-58
2023/03/17 04:36:16;;;;;;;;;;;;;;;18.40;32.85;95357.75;10477429;28;1936;-58
2023/03/17 04:41:17;;;;;;;;;;;;;;;18.39;32.94;95351.69;10486753;28;2676;-58
2023/03/17 04:46:27;;;;;;;;;;;;;;;18.38;32.92;95357.22;10478078;28;2441;-58
2023/03/17 04:51:27;;;;;;;;;;;;;;;18.38;33.02;95357.22;10470451;28;2409;-57
2023/03/17 04:56:28;;;;;;;;;;;;;;;18.36;32.86;95356.72;10473017;28;2465;-57
2023/03/17 05:01:29;;;;;;;;;;;;;;;18.36;32.93;95367.97;10468263;28;1959;-58
2023/03/17 05:06:29;;;;;;;;;;;;;;;18.36;32.89;95362.72;10466554;28;2418;-58
2023/03/17 05:11:31;;;;;;;;;;;;;;;18.38;32.95;95352.75;10464572;28;2442;-55
2023/03/17 05:16:31;;;;;;;;;;;;;;;18.43;33.02;95358.00;10466823;28;2161;-57
2023/03/17 05:21:40;;;;;;;;;;;;;;;18.50;32.98;95357.72;10454494;28;2002;-56
2023/03/17 05:26:41;;;;;;;;;;;;;;;18.59;32.90;95366.59;10470220;28;1964;-58
2023/03/17 05:31:42;;;;;;;;;;;;;;;18.68;32.79;95360.53;10442065;28;2470;-55
2023/03/17 05:36:43;;;;;;;;;;;;;;;18.78;32.70;95354.44;10474801;28;1955;-56
2023/03/17 05:41:43;;;;;;;;;;;;;;;18.88;32.52;95359.63;10478562;28;2453;-56
2023/03/17 05:46:44;;;;;;;;;;;;;;;18.96;32.52;95358.28;10464598;28;2091;-57
2023/03/17 05:51:45;;;;;;;;;;;;;;;19.02;32.37;95349.31;10472589;28;1956;-58
2023/03/17 05:56:45;;;;;;;;;;;;;;;19.06;32.42;95343.22;10447322;28;2067;-57
2023/03/17 06:01:46;;;;;;;;;;;;;;;19.11;32.31;95348.44;10476490;28;2688;-57
2023/03/17 06:06:47;;;;;;;;;;;;;;;19.17;32.21;95349.97;10471856;28;2532;-58
2023/03/17 06:11:47;;;;;;;;;;;;;;;19.22;32.10;95349.16;10472537;28;2464;-55
2023/03/17 06:16:48;;;;;;;;;;;;;;;19.23;32.28;95350.72;10480332;28;2430;-51
2023/03/17 06:21:48;;;;;;;;;;;;;;;19.25;32.17;95349.38;10477752;28;2622;-51
2023/03/17 06:26:48;;;;;;;;;;;;;;;19.28;32.08;95348.06;10454215;28;1983;-58
2023/03/17 06:31:49;;;;;;;;;;;;;;;19.30;32.06;95335.44;10478287;28;2488;-58
2023/03/17 06:36:51;;;;;;;;;;;;;;;19.32;32.15;95335.94;10477621;28;1948;-58
2023/03/17 06:41:54;;;;;;;;;;;;;;;19.35;32.11;95338.81;10483148;28;3008;-57
2023/03/17 06:46:54;;;;;;;;;;;;;;;19.34;32.30;95332.00;10478334;28;2587;-56
2023/03/17 06:51:55;;;;;;;;;;;;;;;19.36;32.44;95340.41;10463130;28;2418;-58
2023/03/17 06:56:56;;;;;;;;;;;;;;;19.40;32.36;95343.25;10483579;28;2421;-55
2023/03/17 07:01:57;;;;;;;;;;;;;;;19.42;32.35;95338.50;10477529;28;2464;-58
2023/03/17 07:06:58;;;;;;;;;;;;;;;19.49;32.36;95334.50;10468672;28;2361;-57
2023/03/17 07:11:58;;;;;;;;;;;;;;;19.52;32.34;95340.25;10457621;28;2434;-54
2023/03/17 07:16:58;;;;;;;;;;;;;;;19.56;32.06;95341.31;10468864;28;2047;-55
2023/03/17 07:22:06;;;;;;;;;;;;;;;19.57;32.20;95346.28;10467235;28;2492;-54
2023/03/17 07:27:10;;;;;;;;;;;;;;;19.62;32.13;95342.81;10439953;28;2476;-56
2023/03/17 07:32:12;;;;;;;;;;;;;;;19.64;32.10;95345.97;10451766;28;1980;-56
2023/03/17 07:37:14;;;;;;;;;;;;;;;19.68;32.15;95346.97;10464471;28;1972;-57
2023/03/17 07:42:16;;;;;;;;;;;;;;;19.71;32.24;95349.03;10469093;28;2520;-54
2023/03/17 07:47:16;;;;;;;;;;;;;;;19.73;32.55;95350.34;10472661;28;2429;-55
2023/03/17 07:52:16;;;;;;;;;;;;;;;19.77;32.45;95358.44;10467792;28;2056;-55
2023/03/17 07:57:17;;;;;;;;;;;;;;;19.80;32.45;95355.28;10472291;28;2414;-53
2023/03/17 08:02:18;;;;;;;;;;;;;;;19.83;32.56;95344.97;10471114;28;2406;-55
2023/03/17 08:07:19;;;;;;;;;;;;;;;19.81;30.97;95344.47;10460997;28;2412;-55
2023/03/17 08:12:20;;;;;;;;;;;;;;;19.05;28.49;95352.16;10462285;28;2480;-54
2023/03/17 08:17:23;;;;;;;;;;;;;;;19.16;29.39;95358.94;10467085;28;2528;-55
2023/03/17 08:22:32;;;;;;;;;;;;;;;19.28;30.05;95361.19;10471144;28;2207;-56
2023/03/17 08:27:32;;;;;;;;;;;;;;;19.35;30.68;95366.97;10469695;28;2219;-56
2023/03/17 08:32:33;;;;;;;;;;;;;;;19.47;30.79;95354.25;10453945;28;2139;-57
2023/03/17 08:37:34;;;;;;;;;;;;;;;19.54;31.16;95343.44;10470947;28;2422;-49
2023/03/17 08:42:36;;;;;;;;;;;;;;;19.63;31.20;95337.28;10478235;28;2191;-59
2023/03/17 08:47:46;;;;;;;;;;;;;;;19.68;31.39;95336.47;10474677;28;2308;-59
2023/03/17 08:52:48;;;;;;;;;;;;;;;19.74;31.31;95337.97;10474392;28;2278;-59
2023/03/17 08:57:49;;;;;;;;;;;;;;;19.75;31.34;95345.59;10472536;28;2263;-59
2023/03/17 09:02:49;;;;;;;;;;;;;;;19.80;31.49;95340.28;10470263;28;2174;-57
2023/03/17 09:07:49;;;;;;;;;;;;;;;19.83;31.49;95349.44;10461192;28;2120;-57
2023/03/17 09:12:50;;;;;;;;;;;;;;;19.89;31.73;95348.31;10480564;28;2139;-58
2023/03/17 09:17:50;;;;;;;;;;;;;;;19.91;32.05;95335.69;10480191;28;2126;-58
2023/03/17 09:22:51;;;;;;;;;;;;;;;19.95;32.09;95328.78;10479495;28;2258;-58
2023/03/17 09:27:52;;;;;;;;;;;;;;;19.99;32.15;95321.94;10478116;28;2235;-58
2023/03/17 09:32:53;;;;;;;;;;;;;;;20.03;32.19;95328.22;10473122;28;1975;-58
2023/03/17 09:37:54;;;;;;;;;;;;;;;20.04;32.33;95317.41;10477388;28;2186;-54
2023/03/17 09:43:13;;;;;;;;;;;;;;;20.08;32.40;95314.97;10474183;28;1985;-51
2023/03/17 09:48:30;;;;;;;;;;;;;;;20.13;32.21;95307.03;10477905;28;2213;-49
2023/03/17 09:53:34;;;;;;;;;;;;;;;20.17;32.43;95305.41;10471595;28;2044;-52
2023/03/17 09:58:35;;;;;;;;;;;;;;;20.21;32.26;95303.81;10470714;28;2136;-52
2023/03/17 10:03:36;;;;;;;;;;;;;;;20.23;32.15;95299.06;10454668;28;2154;-53
2023/03/17 10:08:37;;;;;;;;;;;;;;;20.26;32.30;95295.84;10470203;28;2159;-54
2023/03/17 10:13:37;;;;;;;;;;;;;;;20.28;32.34;95298.97;10468043;28;2171;-52
2023/03/17 10:18:49;;;;;;;;;;;;;;;20.30;32.29;95302.13;10470745;28;2289;-51
2023/03/17 10:23:59;;;;;;;;;;;;;;;20.34;32.25;95297.09;10456548;28;2119;-52
2023/03/17 10:29:03;;;;;;;;;;;;;;;20.34;32.32;95276.78;10453986;28;2202;-54
2023/03/17 10:34:13;;;;;;;;;;;;;;;20.36;32.60;95269.41;10469781;28;2159;-54
2023/03/17 10:39:16;;;;;;;;;;;;;;;20.38;32.36;95275.16;10475764;28;2220;-54
2023/03/17 10:44:20;;;;;;;;;;;;;;;20.40;32.39;95275.69;10471363;28;2184;-53
2023/03/17 10:49:25;;;;;;;;;;;;;;;20.42;32.60;95284.09;10494866;28;2131;-53
2023/03/17 10:54:27;;;;;;;;;;;;;;;20.44;32.38;95291.69;10479329;28;2277;-53
2023/03/17 10:59:28;;;;;;;;;;;;;;;20.48;32.47;95280.31;10474964;28;2174;-55
2023/03/17 11:04:31;;;;;;;;;;;;;;;20.49;32.47;95267.91;10486333;28;2176;-52
2023/03/17 11:09:36;;;;;;;;;;;;;;;20.52;32.62;95270.78;10471588;28;2261;-56
2023/03/17 11:14:36;;;;;;;;;;;;;;;20.54;32.59;95262.59;10492706;28;2199;-55
2023/03/17 11:19:43;;;;;;;;;;;;;;;20.56;32.32;95249.94;10457648;28;2164;-53
2023/03/17 11:24:50;;;;;;;;;;;;;;;20.58;32.54;95251.22;10480073;28;1997;-54
2023/03/17 11:30:00;;;;;;;;;;;;;;;20.61;32.93;95244.59;10478537;28;2177;-56
2023/03/17 11:35:04;;;;;;;;;;;;;;;20.61;33.26;95239.34;10470840;28;2198;-57
2023/03/17 11:40:04;;;;;;;;;;;;;;;20.60;33.64;95233.28;10478475;28;2086;-54
2023/03/17 11:45:11;;;;;;;;;;;;;;;20.61;33.36;95245.38;10471611;28;2026;-53
2023/03/17 11:50:16;;;;;;;;;;;;;;;20.60;33.14;95233.28;10471052;28;2148;-54
2023/03/17 11:55:34;;;;;;;;;;;;;;;20.60;33.38;95232.50;10476683;28;2146;-55
2023/03/17 12:00:41;;;;;;;;;;;;;;;20.59;33.45;95218.53;10480129;28;2200;-53
2023/03/17 12:05:41;;;;;;;;;;;;;;;20.59;33.46;95221.16;10464082;28;2184;-53
2023/03/17 12:10:44;;;;;;;;;;;;;;;20.58;33.43;95216.97;10496818;28;2200;-56
2023/03/17 12:15:46;;;;;;;;;;;;;;;20.57;33.82;95210.13;10457707;28;2194;-54
2023/03/17 12:20:47;;;;;;;;;;;;;;;20.57;33.65;95204.88;10470289;28;2104;-54
2023/03/17 12:25:50;;;;;;;;;;;;;;;20.57;33.83;95196.97;10477418;28;2159;-53
2023/03/17 12:30:53;;;;;;;;;;;;;;;20.55;34.18;95196.47;10488621;28;2249;-57
2023/03/17 12:35:54;;;;;;;;;;;;;;;20.56;34.24;95192.78;10471983;28;2168;-56
2023/03/17 12:41:00;;;;;;;;;;;;;;;20.59;34.34;95189.56;10475781;28;2262;-57
2023/03/17 12:46:28;;;;;;;;;;;;;;;20.60;34.51;95185.09;10471628;28;2164;-55
2023/03/17 12:51:38;;;;;;;;;;;;;;;20.61;34.91;95171.63;10469615;28;2272;-56
2023/03/17 12:56:42;;;;;;;;;;;;;;;20.63;34.80;95176.63;10478389;28;2153;-56
2023/03/17 13:01:53;;;;;;;;;;;;;;;20.63;34.90;95168.72;10473203;28;2037;-58
2023/03/17 13:07:09;;;;;;;;;;;;;;;20.63;34.96;95168.72;10477555;28;2196;-57
2023/03/17 13:12:28;;;;;;;;;;;;;;;20.64;35.19;95159.75;10475141;28;2280;-57
2023/03/17 13:17:29;;;;;;;;;;;;;;;20.63;35.15;95158.94;10477516;28;2316;-56
2023/03/17 13:22:34;;;;;;;;;;;;;;;20.63;35.08;95153.69;10452861;28;1954;-56
2023/03/17 13:27:38;;;;;;;;;;;;;;;20.65;35.19;95150.78;10455740;28;2151;-57
2023/03/17 13:32:38;;;;;;;;;;;;;;;20.66;35.25;95152.34;10472393;28;1996;-57
2023/03/17 13:37:43;;;;;;;;;;;;;;;20.65;35.40;95145.53;10475177;28;2145;-56
2023/03/17 13:43:02;;;;;;;;;;;;;;;20.67;35.35;95143.38;10458835;28;2265;-58
2023/03/17 13:48:21;;;;;;;;;;;;;;;20.67;35.46;95146.00;10471857;28;2173;-56
2023/03/17 13:53:26;;;;;;;;;;;;;;;20.68;35.45;95160.72;10467432;28;2127;-56
2023/03/17 13:58:32;;;;;;;;;;;;;;;20.66;35.73;95139.97;10468773;28;2252;-55
2023/03/17 14:03:36;;;;;;;;;;;;;;;20.68;35.58;95145.72;10466289;28;2192;-57
2023/03/17 14:08:38;;;;;;;;;;;;;;;20.68;35.75;95132.56;10474623;28;1963;-57
2023/03/17 14:13:56;;;;;;;;;;;;;;;20.65;35.24;95125.22;10481413;28;2107;-58
2023/03/17 14:18:58;;;;;;;;;;;;;;;20.66;35.33;95126.00;10455311;28;2361;-57
2023/03/17 14:24:00;;;;;;;;;;;;;;;20.65;35.06;95125.22;10460150;28;2107;-57
2023/03/17 14:29:01;;;;;;;;;;;;;;;20.61;35.00;95124.22;10481797;28;2188;-57
2023/03/17 14:34:04;;;;;;;;;;;;;;;20.60;35.24;95121.88;10479605;28;2184;-50
2023/03/17 14:39:06;;;;;;;;;;;;;;;20.58;35.49;95113.50;10492369;28;2324;-57
2023/03/17 14:44:07;;;;;;;;;;;;;;;20.55;35.52;95114.84;10480576;28;2072;-56
2023/03/17 14:49:17;;;;;;;;;;;;;;;20.53;35.70;95113.56;10479951;28;2188;-55
2023/03/17 14:54:17;;;;;;;;;;;;;;;20.50;35.82;95107.06;10477915;28;2164;-59
2023/03/17 14:59:38;;;;;;;;;;;;;;;20.48;35.62;95105.78;10474105;28;2175;-58
2023/03/17 15:04:47;;;;;;;;;;;;;;;20.44;35.70;95102.94;10478742;28;2119;-57
2023/03/17 15:09:56;;;;;;;;;;;;;;;20.40;35.81;95099.31;10477672;28;1893;-57
2023/03/17 15:15:01;;;;;;;;;;;;;;;20.36;35.63;95090.41;10478241;28;2160;-56
2023/03/17 15:20:05;;;;;;;;;;;;;;;20.32;35.51;95086.78;10478588;28;2198;-56
2023/03/17 15:25:24;;;;;;;;;;;;;;;20.33;35.71;95077.03;10470625;28;2099;-55
2023/03/17 15:30:25;;;;;;;;;;;;;;;20.31;35.78;95076.56;10452164;28;1932;-53
2023/03/17 15:35:26;;;;;;;;;;;;;;;20.29;35.93;95074.22;10460951;28;2160;-58
2023/03/17 15:40:26;;;;;;;;;;;;;;;20.29;36.07;95079.47;10477505;28;2292;-57
2023/03/17 15:45:27;;;;;;;;;;;;;;;20.27;36.24;95078.97;10476193;28;2269;-57
2023/03/17 15:50:29;;;;;;;;;;;;;;;20.27;36.31;95073.72;10471443;28;2182;-57
2023/03/17 15:55:29;;;;;;;;;;;;;;;20.25;36.24;95075.84;10458923;28;1975;-58
2023/03/17 16:00:31;;;;;;;;;;;;;;;20.23;36.29;95070.09;10459549;28;2362;-53
2023/03/17 16:05:33;;;;;;;;;;;;;;;20.21;36.42;95062.50;10480586;28;2184;-56
2023/03/17 16:10:34;;;;;;;;;;;;;;;20.20;36.50;95065.41;10462666;28;1941;-55
2023/03/17 16:15:37;;;;;;;;;;;;;;;20.18;36.43;95068.28;10478022;28;2176;-53
2023/03/17 16:20:39;;;;;;;;;;;;;;;20.17;36.52;95069.34;10463196;28;2130;-54
2023/03/17 16:25:40;;;;;;;;;;;;;;;20.15;36.58;95057.56;10471606;28;2200;-53
2023/03/17 16:30:40;;;;;;;;;;;;;;;20.14;36.40;95066.53;10478715;28;1962;-53
2023/03/17 16:35:40;;;;;;;;;;;;;;;20.11;36.52;95062.59;10483663;28;2202;-53
2023/03/17 16:40:41;;;;;;;;;;;;;;;20.10;36.71;95055.00;10482452;28;2191;-57
2023/03/17 16:45:43;;;;;;;;;;;;;;;20.08;36.46;95055.31;10472488;28;2244;-58
2023/03/17 16:50:44;;;;;;;;;;;;;;;20.07;36.58;95052.97;10448815;28;2166;-57
2023/03/17 16:55:45;;;;;;;;;;;;;;;20.05;36.69;95057.72;10471942;28;2327;-56
2023/03/17 17:00:46;;;;;;;;;;;;;;;20.04;36.36;95058.78;10474802;28;2159;-57
2023/03/17 17:05:46;;;;;;;;;;;;;;;20.01;36.37;95064.63;10470509;28;2363;-59
2023/03/17 17:10:47;;;;;;;;;;;;;;;20.01;36.55;95062.00;10473904;28;2169;-58
2023/03/17 17:15:49;;;;;;;;;;;;;;;20.01;36.31;95064.63;10479012;28;2273;-57
2023/03/17 17:20:49;;;;;;;;;;;;;;;19.96;36.60;95060.22;10473750;28;2125;-56
2023/03/17 17:25:50;;;;;;;;;;;;;;;19.95;36.54;95063.13;10463643;28;2141;-57
2023/03/17 17:30:51;;;;;;;;;;;;;;;19.95;36.68;95063.13;10474778;28;2117;-55
2023/03/17 17:35:52;;;;;;;;;;;;;;;19.93;36.80;95065.25;10471822;28;2201;-58
2023/03/17 17:40:52;;;;;;;;;;;;;;;19.91;36.52;95062.13;10486314;28;2265;-57
2023/03/17 17:45:53;;;;;;;;;;;;;;;19.89;36.44;95054.53;10470230;28;1965;-54
2023/03/17 17:50:54;;;;;;;;;;;;;;;19.89;36.42;95051.91;10476037;28;1966;-56
2023/03/17 17:55:56;;;;;;;;;;;;;;;19.87;36.46;95047.97;10468524;28;2165;-53
2023/03/17 18:00:57;;;;;;;;;;;;;;;19.86;36.44;95049.84;10478222;28;1978;-56
2023/03/17 18:05:57;;;;;;;;;;;;;;;19.83;36.21;95058.31;10483011;28;2488;-56
2023/03/17 18:10:58;;;;;;;;;;;;;;;19.82;36.31;95061.22;10464468;28;1944;-55
2023/03/17 18:16:00;;;;;;;;;;;;;;;19.85;36.61;95068.53;10452659;28;2119;-57
2023/03/17 18:21:01;;;;;;;;;;;;;;;19.87;36.88;95067.19;10479554;28;2234;-53
2023/03/17 18:26:02;;;;;;;;;;;;;;;19.87;36.87;95067.19;10484858;28;2280;-55
2023/03/17 18:31:11;;;;;;;;;;;;;;;19.94;36.90;95064.19;10483808;28;2030;-51
2023/03/17 18:36:12;;;;;;;;;;;;;;;19.97;36.92;95068.91;10464996;28;2139;-54
2023/03/17 18:41:12;;;;;;;;;;;;;;;19.99;36.80;95072.03;10472841;28;2186;-51
2023/03/17 18:46:14;;;;;;;;;;;;;;;20.09;36.68;95071.88;10482889;28;2188;-55
2023/03/17 18:51:15;;;;;;;;;;;;;;;20.07;37.04;95081.91;10470132;28;2135;-53
2023/03/17 18:56:15;;;;;;;;;;;;;;;20.10;37.00;95081.31;10489149;28;2160;-53
2023/03/17 19:01:18;;;;;;;;;;;;;;;20.15;36.87;95074.13;10481114;28;2214;-54
2023/03/17 19:06:20;;;;;;;;;;;;;;;20.22;37.20;95079.06;10490274;28;2292;-53
2023/03/17 19:11:21;;;;;;;;;;;;;;;20.31;37.16;95082.59;10488234;28;2325;-59
2023/03/17 19:16:27;;;;;;;;;;;;;;;20.37;36.68;95080.66;10493655;28;2146;-57
2023/03/17 19:21:28;;;;;;;;;;;;;;;20.41;37.21;95079.03;10485468;28;2132;-56
2023/03/17 19:26:31;;;;;;;;;;;;;;;20.51;36.67;95087.53;10482295;28;2038;-59
2023/03/17 19:31:31;;;;;;;;;;;;;;;20.57;37.03;95086.38;10486654;28;2115;-58
2023/03/17 19:36:36;;;;;;;;;;;;;;;20.66;36.49;95094.41;10471893;28;1891;-54
2023/03/17 19:41:36;;;;;;;;;;;;;;;20.68;36.35;95092.25;10483125;28;1995;-48
2023/03/17 19:46:36;;;;;;;;;;;;;;;20.76;36.77;95097.66;10482533;28;2195;-59
2023/03/17 19:51:47;;;;;;;;;;;;;;;20.84;36.66;95104.88;10479028;28;1920;-59
2023/03/17 19:56:49;;;;;;;;;;;;;;;20.87;36.60;95106.94;10475550;28;2179;-59
2023/03/17 20:01:50;;;;;;;;;;;;;;;20.95;36.82;95114.19;10477457;28;2331;-59
2023/03/17 20:06:57;;;;;;;;;;;;;;;21.02;36.59;95100.63;10475743;28;2228;-59
2023/03/17 20:12:07;;;;;;;;;;;;;;;21.07;36.47;95095.28;10460875;28;2172;-59
2023/03/17 20:17:07;;;;;;;;;;;;;;;21.16;37.14;95104.06;10489461;28;2236;-59
2023/03/17 20:22:08;;;;;;;;;;;;;;;21.20;36.53;95094.50;10481412;28;2176;-59
2023/03/17 20:27:10;;;;;;;;;;;;;;;21.27;36.57;95105.44;10468894;28;2252;-59
2023/03/17 20:32:10;;;;;;;;;;;;;;;21.32;36.57;95110.63;10475243;28;2196;-59
2023/03/17 20:37:10;;;;;;;;;;;;;;;21.39;36.37;95102.31;10473153;28;2170;-59
2023/03/17 20:42:13;;;;;;;;;;;;;;;21.42;36.65;95105.16;10483752;28;2222;-59
2023/03/17 20:47:14;;;;;;;;;;;;;;;21.43;36.46;95109.31;10475529;28;2151;-59
2023/03/17 20:52:16;;;;;;;;;;;;;;;21.46;36.71;95123.78;10481173;28;2202;-59
2023/03/17 20:57:17;;;;;;;;;;;;;;;21.48;36.54;95116.38;10480539;28;2158;-59
2023/03/17 21:02:17;;;;;;;;;;;;;;;21.47;36.41;95120.09;10484327;28;2277;-59
2023/03/17 21:07:19;;;;;;;;;;;;;;;21.44;35.76;95116.19;10479587;28;2344;-59
2023/03/17 21:12:21;;;;;;;;;;;;;;;21.27;34.45;95123.88;10479810;28;2034;-59
2023/03/17 21:17:21;;;;;;;;;;;;;;;21.17;34.53;95123.28;10480320;28;1972;-59
2023/03/17 21:22:21;;;;;;;;;;;;;;;21.11;34.46;95121.81;10468399;28;2229;-59
2023/03/17 21:27:22;;;;;;;;;;;;;;;21.02;34.18;95133.03;10461177;28;2241;-60
2023/03/17 21:32:23;;;;;;;;;;;;;;;20.96;34.34;95142.06;10478866;28;2089;-59
2023/03/17 21:37:24;;;;;;;;;;;;;;;20.91;34.79;95155.34;10478237;28;1938;-59
2023/03/17 21:42:24;;;;;;;;;;;;;;;20.87;34.35;95153.56;10470241;28;2151;-59
2023/03/17 21:47:24;;;;;;;;;;;;;;;20.82;34.45;95154.44;10477191;28;2608;-60
2023/03/17 21:52:25;;;;;;;;;;;;;;;20.79;34.64;95157.63;10459314;28;2141;-60
2023/03/17 21:57:26;;;;;;;;;;;;;;;20.75;34.35;95153.25;10472156;28;2024;-59
2023/03/17 22:02:27;;;;;;;;;;;;;;;20.73;34.65;95155.41;10476609;28;2302;-58
2023/03/17 22:07:28;;;;;;;;;;;;;;;20.69;34.44;95157.03;10465483;28;2255;-57
2023/03/17 22:12:28;;;;;;;;;;;;;;;20.65;34.66;95156.81;10471905;28;2177;-57
2023/03/17 22:17:28;;;;;;;;;;;;;;;20.65;35.17;95167.34;10469556;28;1924;-58
2023/03/17 22:22:29;;;;;;;;;;;;;;;20.63;35.06;95160.81;10471794;28;2132;-56
2023/03/17 22:27:30;;;;;;;;;;;;;;;20.61;34.98;95165.59;10469730;28;2180;-57
2023/03/17 22:32:31;;;;;;;;;;;;;;;20.60;35.01;95169.28;10472466;28;2528;-57
2023/03/17 22:37:32;;;;;;;;;;;;;;;20.57;35.25;95181.16;10482521;28;2164;-57
2023/03/17 22:42:32;;;;;;;;;;;;;;;20.57;34.90;95183.00;10480378;28;2270;-56
2023/03/17 22:47:33;;;;;;;;;;;;;;;20.55;35.10;95178.03;10479965;28;2189;-57
2023/03/17 22:52:33;;;;;;;;;;;;;;;20.53;34.85;95174.91;10481043;28;2203;-57
2023/03/17 22:57:34;;;;;;;;;;;;;;;20.52;34.75;95181.25;10482133;28;2177;-55
2023/03/17 23:02:34;;;;;;;;;;;;;;;20.52;34.94;95189.16;10454903;28;2166;-56
2023/03/17 23:07:35;;;;;;;;;;;;;;;20.49;34.71;95194.97;10480660;28;2251;-57
2023/03/17 23:12:36;;;;;;;;;;;;;;;20.48;34.65;95203.97;10459135;28;2055;-57
2023/03/17 23:17:37;;;;;;;;;;;;;;;20.46;34.51;95195.56;10460466;28;2224;-56
2023/03/17 23:22:37;;;;;;;;;;;;;;;20.44;34.84;95208.25;10485305;28;2045;-57
2023/03/17 23:27:38;;;;;;;;;;;;;;;20.43;34.61;95211.13;10471070;28;1979;-58
2023/03/17 23:32:39;;;;;;;;;;;;;;;20.42;34.60;95209.59;10468127;28;2261;-55
2023/03/17 23:37:40;;;;;;;;;;;;;;;20.41;34.55;95216.69;10476179;28;2180;-57
2023/03/17 23:42:42;;;;;;;;;;;;;;;20.39;34.69;95212.78;10455478;28;2179;-59
2023/03/17 23:47:43;;;;;;;;;;;;;;;20.38;34.49;95214.63;10473825;28;2105;-59
2023/03/17 23:52:43;;;;;;;;;;;;;;;20.37;34.47;95204.38;10474820;28;1963;-59
2023/03/17 23:57:44;;;;;;;;;;;;;;;20.35;34.54;95215.19;10480087;28;2274;-59
